Pagrindinis puslapis
METAR-TAF:

METAR-TAF

Oro uostai :

Beirutas, Libanas

platuma: 33-49N, ilguma: 035-29E, Aukštis: 29 m

Dabartinis oras

Ataskaita buvo paskelbta 1 valandą ir 11 minutes, ne 06:00 UTC
Vėjas 4 kt iš Rytų
Temperatūra 25°C
Drėgmė 32%
Slėgis 1015 hPa
Matomumas 10 km arba daugiau
nėra debesų žemiau 1500 m ir nėra kamuolinių lietaus debesų

METAR: OLBA 260600Z 10004KT CAVOK 25/07 Q1015 NOSIG

Laikas: 09:11 (07:11 UTC)

Prognozė

Ataskaita buvo paskelbta 3 valandos ir 11 minutes, ne 04:00 UTC
Prognozė galioja nuo 26 metu 06 UTC su 27 metu 12 UTC
Vėjas 12 kt iš Vakarų/Šiaurės Vakarų
Matomumas: 8000 m
Tapsmas
nuo 26 metu 18 UTC su 26 metu 21 UTC
Vėjas 4 kt iš Pietryčių
Matomumas 10 km arba daugiau
nėra debesų žemiau 1500 m ir nėra kamuolinių lietaus debesų
Tapsmas
nuo 27 metu 06 UTC su 27 metu 08 UTC
Vėjas 12 kt iš Vakarų
Matomumas: 8000 m
Mažai debesys ne aukštis 2600 ft

TAF: OLBA 260400Z 2606/2712 30012KT 8000 NSC BECMG 2618/2621 13004KT CAVOK BECMG 2706/2708 26012KT 8000 FEW026

Orai ataskaitas ir orų prognozės (METAR, TAF).

turimą stotys yra geltonos ir raudonos taškus žemėlapyje.

Perkelti pele per norėdami pamatyti stoties vardą.

Tada spustelėkite, norėdami matyti oro stebėjimo ir prognozės.

Norėdami pakeisti žemėlapį: spustelėkite ant žalios mygtukų su juodo kryžiaus žemyn,; žalią mygtuką su brūkšneliu, jei norite nutolinti; arba žalių rodyklių gretimoms žemėlapius.


METAR-TAF: